Vejle, Denmark
Current Conditions -  °F | °C
As of 8:38 AM on Wednesday 22 Oct 2014 (Local Time) from EKBI Reporting Station
Light Fog Light Fog  
Wind Chill: 41°   Ceiling: Unl
Heat Index: 41°   Visibility: 4mi
Dew Point: 41°   Wind: 3mph
Humidity: 100%   Direction: 40°NE
Pressure: 29.59"   Gusts: NA
Location:  55.71°N, 9.54°E
Report Text: EKBI 220638Z 04003KT 7000 MIFG SCT120 SCT200 05/05 Q1002
Loading
Personal Weather Stations






























Interactive Weather Map
Tropical Storm Tracking
New forecast layout! Learn more

10-Day Weather Forecast

Advertisements
Track Severe Weather on mobile